Have a Safe July 4th! 

Flight Track Log - Related Links

Times and Time Zones

All times are in EDT time to prevent confusion due to time zone crossing. See the SWA534 flight status page for this flight to view local times or setup timezone preferences in your user account.

Time Position Orientation Groundspeed Altitude Reporting Facility
EDT Latitude Longitude Course Direction KTS MPH feet Rate Location/Type
Sun 08:27:28 PM 37.7333 -122.2667 336° Northwest 178 205 1,300  Level Northern Cal TRACON
Sun 08:29:28 PM 37.8300 -122.3200 336° Northwest 231 266 4,800 2,022 Climbing Oakland Center
Sun 08:30:29 PM 37.9039 -122.2942 15° North 268 308 7,400 2,537 Climbing Oakland Center
Sun 08:31:31 PM 37.9822 -122.2703 14° North 288 331 10,000 2,195 Climbing Oakland Center
Sun 08:32:32 PM 38.0936 -122.2394 12° North 351 404 11,900 2,000 Climbing Oakland Center
Sun 08:33:34 PM 38.1928 -122.2108 13° North 368 423 14,100 2,244 Climbing Oakland Center
Sun 08:34:35 PM 38.2942 -122.1856 11° North 372 428 16,500 2,164 Climbing Oakland Center
Sun 08:35:36 PM 38.3992 -122.1581 12° North 384 442 18,500 1,805 Climbing Oakland Center
Sun 08:36:38 PM 38.5106 -122.1511 North 405 466 20,200 1,610 Climbing Oakland Center
Sun 08:37:39 PM 38.6261 -122.1633 355° North 416 479 21,800 1,805 Climbing Oakland Center
Sun 08:38:41 PM 38.7603 -122.1772 355° North 431 496 23,900 1,756 Climbing Oakland Center
Sun 08:39:42 PM 38.8803 -122.1894 355° North 431 496 25,400 1,415 Climbing Oakland Center
Sun 08:40:44 PM 39.0028 -122.2019 355° North 439 505 26,800 1,463 Climbing Oakland Center
Sun 08:41:45 PM 39.1281 -122.2150 355° North 448 516 28,400 1,561 Climbing Oakland Center
Sun 08:42:47 PM 39.2503 -122.2269 356° North 441 507 30,000 1,463 Climbing Oakland Center
Sun 08:43:48 PM 39.3722 -122.2408 355° North 440 506 31,400 1,610 Climbing Oakland Center
Sun 08:44:50 PM 39.5150 -122.2522 356° North 430 495 33,300 1,268 Climbing Oakland Center
Sun 08:45:51 PM 39.6322 -122.2639 356° North 424 488 34,000 1,171 Climbing Oakland Center
Sun 08:46:53 PM 39.7497 -122.2758 356° North 424 488 35,700 976 Climbing Oakland Center
Sun 08:47:54 PM 39.8639 -122.2878 355° North 416 479 36,000 146 Climbing Oakland Center
Sun 08:48:56 PM 39.9772 -122.2994 355° North 411 473 36,000  Level Oakland Center
Sun 08:49:57 PM 40.0986 -122.3136 355° North 425 489 36,000  Level Oakland Center
Sun 08:50:59 PM 40.2114 -122.3264 355° North 423 487 36,000  Level Oakland Center
Sun 08:52:00 PM 40.3425 -122.3369 356° North 430 495 36,000  Level Oakland Center
Sun 08:53:02 PM 40.4581 -122.3486 356° North 420 483 36,000  Level Oakland Center
Sun 08:54:03 PM 40.5731 -122.3603 356° North 416 479 36,000  Level Oakland Center
Sun 08:55:05 PM 40.6883 -122.3722 356° North 416 479 36,000  Level Oakland Center
Sun 08:56:07 PM 40.8036 -122.3828 356° North 417 480 36,000  Level Oakland Center
Sun 08:57:08 PM 40.9406 -122.3981 355° North 412 474 36,000  Level Oakland Center
Sun 08:58:10 PM 41.0558 -122.4106 355° North 415 478 36,000  Level Oakland Center
Sun 08:59:11 PM 41.1708 -122.4250 355° North 417 480 36,000  Level Oakland Center
Sun 09:00:13 PM 41.2869 -122.4381 355° North 418 481 36,000  Level Oakland Center
Sun 09:01:14 PM 41.3878 -122.4464 356° North 413 475 36,000  Level Oakland Center
Sun 09:02:16 PM 41.5267 -122.4606 356° North 416 479 36,000  Level Oakland Center
Sun 09:03:17 PM 41.6431 -122.4756 354° North 419 482 36,000  Level Oakland Center
Sun 09:04:19 PM 41.7586 -122.4881 355° North 416 479 36,000  Level Oakland Center
Sun 09:05:20 PM 41.8758 -122.5014 355° North 419 482 36,000  Level Oakland Center
Sun 09:06:22 PM 41.9922 -122.5139 355° North 418 481 36,000  Level Oakland Center
Sun 09:07:23 PM 42.1094 -122.5269 355° North 418 481 36,000  Level Oakland Center
Sun 09:08:25 PM 42.2269 -122.5394 355° North 421 484 36,000  Level Oakland Center
Sun 09:09:51 PM 42.3917 -122.5536 356° North 421 484 36,000  Level Seattle Center
Sun 09:10:52 PM 42.5092 -122.5658 356° North 422 486 36,000  Level Seattle Center
Sun 09:11:53 PM 42.6261 -122.5786 355° North 422 486 36,000  Level Seattle Center
Sun 09:12:54 PM 42.7578 -122.5928 355° North 423 487 36,000  Level Seattle Center
Sun 09:13:55 PM 42.8747 -122.6053 356° North 425 489 36,000  Level Seattle Center
Sun 09:14:56 PM 42.9914 -122.6192 355° North 423 487 36,000  Level Seattle Center
Sun 09:15:57 PM 43.1100 -122.6314 356° North 427 491 36,000  Level Seattle Center
Sun 09:16:58 PM 43.2286 -122.6456 355° North 429 494 36,000  Level Seattle Center
Sun 09:17:59 PM 43.3467 -122.6592 355° North 427 491 36,000  Level Seattle Center
Sun 09:19:00 PM 43.4644 -122.6722 355° North 427 491 36,000  Level Seattle Center
Sun 09:20:02 PM 43.6083 -122.6883 355° North 433 498 36,000  Level Seattle Center
Sun 09:21:03 PM 43.7272 -122.7031 355° North 432 497 36,000 -492 Level Seattle Center
Sun 09:22:04 PM 43.8447 -122.7147 356° North 426 490 35,000 -1,918 Descending Seattle Center
Sun 09:23:05 PM 43.9661 -122.7308 355° North 437 503 32,100 -2,607 Descending Seattle Center
Sun 09:24:06 PM 44.0864 -122.7439 356° North 436 502 29,700 -2,311 Descending Seattle Center
Sun 09:25:07 PM 44.2022 -122.7478 359° North 424 488 27,400 -2,213 Descending Seattle Center
Sun 09:26:08 PM 44.3158 -122.7356 North 416 479 25,200 -2,164 Descending Seattle Center
Sun 09:27:09 PM 44.4278 -122.7250 North 408 470 23,000 -2,164 Descending Seattle Center
Sun 09:28:10 PM 44.5328 -122.7147 North 394 453 20,800 -2,311 Descending Seattle Center
Sun 09:29:11 PM 44.6575 -122.7025 North 382 440 18,300 -2,147 Descending Seattle Center
Sun 09:29:59 PM 44.7319 -122.6958 North 367 422 16,900 -1,795 Descending Seattle Center
Sun 09:31:18 PM 44.8703 -122.6828 North 354 407 14,500 -1,701 Descending Seattle Center
Sun 09:32:13 PM 44.9489 -122.6756 North 330 380 13,100 -1,774 Descending Seattle Center
Sun 09:33:13 PM 45.0442 -122.6647 North 325 374 11,100 -1,537 Descending Seattle Center
Sun 09:34:14 PM 45.1294 -122.6578 North 307 353 10,000 -1,279 Descending Seattle Center
Sun 09:35:15 PM 45.2075 -122.6261 16° North 298 343 8,500 -1,475 Descending Seattle Center
Sun 09:36:16 PM 45.2783 -122.5697 29° Northeast 293 337 7,000 -1,403 Descending Seattle Center
Sun 09:37:19 PM 45.3417 -122.5194 29° Northeast 289 333 5,600 -1,289 Descending Seattle Center
Sun 09:38:17 PM 45.4167 -122.4608 29° Northeast 260 299 4,400 -1,082 Descending Seattle Center
Sun 09:39:21 PM 45.4750 -122.4131 30° Northeast 237 273 3,400 -1,056 Descending Seattle Center
Sun 09:40:22 PM 45.5267 -122.4306 347° North 211 243 2,200 -1,008 Descending Seattle Center
Sun 09:41:20 PM 45.5486 -122.4806 302° West 148 170 1,400 -756 Descending Seattle Center
Sun 09:42:21 PM 45.5672 -122.5286 299° West 138 159 700 -524 Descending Seattle Center
Sun 09:43:26 PM 45.5875 -122.5758 302° West 154 177 300 -369 Descending Seattle Center

Login

Don't have an account? Register now (free) for customized features, flight alerts, and more!